createdAt,value
2017-12-28T00:00:23.361Z,4.30
2017-12-28T00:02:50.660Z,4.20
2017-12-28T00:05:17.589Z,4.20
2017-12-28T00:07:44.555Z,4.20
2017-12-28T00:10:11.514Z,4.10
2017-12-28T00:12:39.244Z,4.00
2017-12-28T00:15:06.215Z,4.00
2017-12-28T00:17:33.184Z,4.10
2017-12-28T00:20:00.952Z,4.20
2017-12-28T00:22:27.916Z,4.20
2017-12-28T00:24:54.875Z,4.20
2017-12-28T00:27:21.834Z,4.10
2017-12-28T00:29:48.800Z,4.00
2017-12-28T00:32:15.756Z,3.90
2017-12-28T00:34:42.723Z,3.80
2017-12-28T00:37:10.452Z,3.80
2017-12-28T00:39:37.426Z,3.80
2017-12-28T00:42:04.383Z,3.80
2017-12-28T00:44:32.123Z,4.00
2017-12-28T00:46:59.096Z,4.00
2017-12-28T00:49:26.825Z,4.00
2017-12-28T00:51:53.792Z,4.00
2017-12-28T00:54:20.756Z,4.00
2017-12-28T00:56:48.847Z,3.80
2017-12-28T00:59:16.559Z,3.60
2017-12-28T01:01:43.524Z,3.60
2017-12-28T01:04:11.261Z,3.50
2017-12-28T01:06:38.236Z,3.50
2017-12-28T01:09:05.200Z,3.40
2017-12-28T01:11:32.168Z,3.50
2017-12-28T01:13:59.133Z,3.50
2017-12-28T01:16:26.101Z,3.40
2017-12-28T01:18:53.056Z,3.30
2017-12-28T01:21:20.032Z,3.40
2017-12-28T01:23:46.994Z,3.40
2017-12-28T01:26:13.960Z,3.30
2017-12-28T01:28:40.928Z,3.40
2017-12-28T01:31:07.884Z,3.30
2017-12-28T01:33:35.611Z,3.20
2017-12-28T01:36:02.575Z,3.20
2017-12-28T01:38:29.540Z,3.20
2017-12-28T01:40:57.268Z,3.10
2017-12-28T01:43:24.239Z,3.10
2017-12-28T01:45:51.194Z,3.30
2017-12-28T01:48:18.933Z,3.30
2017-12-28T01:50:45.888Z,3.20
2017-12-28T01:53:13.624Z,3.30
2017-12-28T01:55:40.584Z,3.20
2017-12-28T01:58:07.585Z,3.30
2017-12-28T02:00:34.552Z,3.20
2017-12-28T02:03:01.515Z,3.10
2017-12-28T02:05:28.480Z,3.10
2017-12-28T02:07:55.440Z,3.10
2017-12-28T02:10:23.180Z,3.20
2017-12-28T02:12:50.140Z,3.20
2017-12-28T02:15:17.107Z,3.20
2017-12-28T02:17:44.832Z,3.10
2017-12-28T02:20:11.812Z,3.10
2017-12-28T02:22:39.546Z,3.10
2017-12-28T02:25:06.500Z,3.10
2017-12-28T02:27:34.972Z,3.10
2017-12-28T02:30:01.950Z,3.10
2017-12-28T02:32:29.671Z,3.20
2017-12-28T02:34:56.640Z,3.20
2017-12-28T02:37:24.376Z,3.20
2017-12-28T02:39:51.346Z,3.20
2017-12-28T02:42:18.303Z,3.20
2017-12-28T02:44:46.037Z,3.10
2017-12-28T02:47:13.013Z,3.10
2017-12-28T02:49:39.964Z,3.10
2017-12-28T02:52:07.710Z,3.00
2017-12-28T02:54:35.432Z,3.10
2017-12-28T02:57:02.400Z,3.10
2017-12-28T02:59:29.359Z,3.00
2017-12-28T03:01:57.620Z,2.80
2017-12-28T03:04:24.572Z,2.80
2017-12-28T03:06:51.536Z,2.80
2017-12-28T03:09:19.268Z,2.60
2017-12-28T03:11:46.228Z,2.60
2017-12-28T03:14:13.201Z,2.60
2017-12-28T03:16:40.929Z,2.60
2017-12-28T03:19:07.888Z,2.60
2017-12-28T03:21:34.847Z,2.60
2017-12-28T03:24:02.580Z,2.60
2017-12-28T03:26:29.548Z,2.60
2017-12-28T03:28:56.536Z,2.60
2017-12-28T03:31:23.505Z,2.60
2017-12-28T03:33:50.470Z,2.60
2017-12-28T03:36:17.441Z,2.60
2017-12-28T03:38:45.164Z,2.60
2017-12-28T03:41:12.132Z,2.60
2017-12-28T03:43:39.868Z,2.60
2017-12-28T03:46:06.836Z,2.60
2017-12-28T03:48:35.927Z,2.60
2017-12-28T03:51:02.901Z,2.50
2017-12-28T03:53:30.623Z,2.60
2017-12-28T03:55:57.593Z,2.60
2017-12-28T03:58:25.336Z,2.50
2017-12-28T04:00:52.304Z,2.50
2017-12-28T04:03:19.273Z,2.50
2017-12-28T04:05:47.010Z,2.40
2017-12-28T04:08:13.964Z,2.40
2017-12-28T04:10:40.932Z,2.30
2017-12-28T04:13:07.898Z,2.40
2017-12-28T04:15:34.864Z,2.40
2017-12-28T04:18:01.828Z,2.30
2017-12-28T04:20:30.300Z,2.20
2017-12-28T04:22:57.272Z,2.30
2017-12-28T04:25:24.236Z,2.30
2017-12-28T04:27:53.001Z,2.20
2017-12-28T04:30:19.966Z,2.10
2017-12-28T04:32:47.696Z,2.10
2017-12-28T04:35:15.425Z,2.10
2017-12-28T04:37:42.396Z,2.10
2017-12-28T04:40:09.360Z,2.10
2017-12-28T04:42:36.325Z,2.10
2017-12-28T04:45:04.061Z,2.00
2017-12-28T04:47:31.040Z,2.00
2017-12-28T04:49:58.011Z,2.00
2017-12-28T04:52:24.976Z,2.00
2017-12-28T04:54:51.932Z,2.00
2017-12-28T04:57:18.891Z,2.00
2017-12-28T04:59:46.628Z,2.00
2017-12-28T05:02:13.597Z,2.00
2017-12-28T05:04:40.555Z,2.00
2017-12-28T05:07:08.291Z,1.90
2017-12-28T05:09:35.267Z,1.90
2017-12-28T05:12:02.224Z,1.90
2017-12-28T05:14:29.956Z,2.00
2017-12-28T05:16:57.280Z,2.00
2017-12-28T05:19:24.251Z,2.00
2017-12-28T05:21:51.219Z,2.00
2017-12-28T05:24:19.692Z,1.90
2017-12-28T05:26:46.652Z,1.90
2017-12-28T05:29:14.748Z,1.80
2017-12-28T05:31:42.447Z,1.80
2017-12-28T05:34:09.423Z,1.90
2017-12-28T05:36:36.371Z,1.80
2017-12-28T05:39:04.124Z,1.80
2017-12-28T05:41:31.849Z,1.70
2017-12-28T05:43:58.809Z,1.70
2017-12-28T05:46:25.780Z,1.70
2017-12-28T05:48:52.739Z,1.80
2017-12-28T05:51:20.480Z,1.70
2017-12-28T05:53:48.222Z,1.70
2017-12-28T05:56:15.175Z,1.70
2017-12-28T05:58:42.135Z,1.70
2017-12-28T06:01:09.124Z,1.70
2017-12-28T06:03:49.068Z,1.70
2017-12-28T06:06:16.039Z,1.70
2017-12-28T06:08:43.000Z,1.70
2017-12-28T06:11:09.967Z,1.70
2017-12-28T06:13:36.928Z,1.70
2017-12-28T06:16:03.901Z,1.70
2017-12-28T06:18:30.867Z,1.70
2017-12-28T06:20:57.854Z,1.70
2017-12-28T06:23:24.807Z,1.70
2017-12-28T06:25:52.545Z,1.70
2017-12-28T06:28:19.503Z,1.70
2017-12-28T06:30:46.472Z,1.60
2017-12-28T06:33:14.208Z,1.60
2017-12-28T06:35:41.172Z,1.60
2017-12-28T06:38:08.912Z,1.70
2017-12-28T06:40:35.868Z,1.70
2017-12-28T06:43:03.607Z,1.60
2017-12-28T06:45:30.571Z,1.60
2017-12-28T06:47:57.556Z,1.50
2017-12-28T06:50:25.277Z,1.50
2017-12-28T06:52:52.252Z,1.50
2017-12-28T06:55:19.988Z,1.50
2017-12-28T06:57:46.965Z,1.50
2017-12-28T07:00:14.691Z,1.50
2017-12-28T07:02:41.652Z,1.40
2017-12-28T07:05:08.616Z,1.50
2017-12-28T07:07:36.353Z,1.40
2017-12-28T07:10:03.321Z,1.40
2017-12-28T07:12:31.049Z,1.40
2017-12-28T07:14:58.016Z,1.40
2017-12-28T07:17:26.484Z,1.40
2017-12-28T07:19:53.448Z,1.40
2017-12-28T07:22:20.408Z,1.40
2017-12-28T07:24:48.149Z,1.40
2017-12-28T07:27:15.102Z,1.30
2017-12-28T07:29:42.067Z,1.40
2017-12-28T07:32:09.800Z,1.40
2017-12-28T07:34:36.769Z,1.30
2017-12-28T07:37:04.500Z,1.40
2017-12-28T07:39:32.108Z,1.40
2017-12-28T07:41:59.064Z,1.40
2017-12-28T07:44:26.025Z,1.40
2017-12-28T07:46:53.016Z,1.50
2017-12-28T07:49:21.477Z,1.50
2017-12-28T07:51:48.448Z,1.50
2017-12-28T07:54:16.172Z,1.60
2017-12-28T07:56:43.139Z,1.60
2017-12-28T07:59:10.880Z,1.70
2017-12-28T08:01:37.848Z,1.70
2017-12-28T08:04:05.600Z,1.80
2017-12-28T08:06:32.566Z,1.70
2017-12-28T08:08:59.524Z,1.80
2017-12-28T08:11:27.264Z,1.90
2017-12-28T08:13:54.229Z,1.90
2017-12-28T08:16:21.957Z,2.10
2017-12-28T08:18:48.928Z,2.10
2017-12-28T08:21:15.888Z,2.10
2017-12-28T08:23:43.629Z,2.20
2017-12-28T08:26:10.596Z,2.10
2017-12-28T08:28:38.324Z,2.20
2017-12-28T08:31:05.288Z,2.20
2017-12-28T08:33:33.765Z,2.20
2017-12-28T08:36:02.238Z,2.20
2017-12-28T08:38:29.213Z,2.20
2017-12-28T08:40:56.936Z,2.20
2017-12-28T08:43:23.903Z,2.20
2017-12-28T08:45:50.860Z,2.10
2017-12-28T08:48:18.613Z,2.20
2017-12-28T08:50:47.083Z,2.20
2017-12-28T08:53:14.059Z,2.20
2017-12-28T08:55:41.796Z,2.00
2017-12-28T08:58:08.763Z,2.00
2017-12-28T09:00:36.500Z,2.20
2017-12-28T09:03:03.464Z,2.20
2017-12-28T09:05:30.428Z,2.20
2017-12-28T09:07:58.159Z,2.20
2017-12-28T09:10:25.130Z,2.20
2017-12-28T09:12:52.852Z,2.20
2017-12-28T09:15:19.819Z,2.10
2017-12-28T09:17:47.543Z,2.10
2017-12-28T09:20:14.518Z,2.10
2017-12-28T09:22:41.483Z,2.10
2017-12-28T09:25:08.432Z,2.20
2017-12-28T09:27:36.159Z,2.30
2017-12-28T09:30:03.136Z,2.30
2017-12-28T09:32:30.103Z,2.40
2017-12-28T09:34:57.824Z,2.40
2017-12-28T09:37:24.796Z,2.40
2017-12-28T09:39:52.532Z,2.40
2017-12-28T09:42:19.504Z,2.30
2017-12-28T09:44:47.235Z,2.30
2017-12-28T09:47:14.207Z,2.30
2017-12-28T09:49:41.163Z,2.30
2017-12-28T09:52:08.896Z,2.40
2017-12-28T09:54:36.309Z,2.40
2017-12-28T09:57:03.279Z,2.70
2017-12-28T09:59:30.244Z,2.90
2017-12-28T10:01:57.216Z,2.90
2017-12-28T10:04:24.952Z,2.90
2017-12-28T10:06:51.916Z,2.80
2017-12-28T10:09:19.652Z,2.50
2017-12-28T10:11:46.612Z,2.40
2017-12-28T10:14:13.580Z,2.40
2017-12-28T10:16:42.044Z,2.40
2017-12-28T10:19:09.008Z,2.40
2017-12-28T10:21:36.945Z,2.30
2017-12-28T10:24:03.911Z,2.30
2017-12-28T10:26:30.872Z,2.30
2017-12-28T10:28:58.604Z,2.50
2017-12-28T10:31:25.574Z,2.40
2017-12-28T10:33:52.540Z,2.40
2017-12-28T10:36:19.496Z,2.30
2017-12-28T10:38:47.389Z,2.40
2017-12-28T10:41:14.360Z,2.40
2017-12-28T10:43:41.984Z,2.50
2017-12-28T10:46:08.944Z,2.50
2017-12-28T10:48:35.912Z,2.60
2017-12-28T10:51:02.882Z,2.50
2017-12-28T10:53:30.603Z,2.90
2017-12-28T10:55:57.572Z,2.80
2017-12-28T10:58:25.300Z,3.00
2017-12-28T11:00:52.268Z,3.00
2017-12-28T11:03:19.223Z,3.10
2017-12-28T11:05:46.969Z,2.90
2017-12-28T11:08:13.926Z,2.90
2017-12-28T11:10:40.891Z,2.80
2017-12-28T11:13:08.624Z,2.90
2017-12-28T11:15:35.604Z,2.90
2017-12-28T11:18:03.337Z,2.90
2017-12-28T11:20:30.301Z,2.80
2017-12-28T11:22:58.035Z,2.90
2017-12-28T11:25:24.988Z,2.90
2017-12-28T11:27:51.948Z,2.90
2017-12-28T11:30:20.424Z,2.80
2017-12-28T11:32:47.384Z,2.80
2017-12-28T11:35:15.124Z,2.80
2017-12-28T11:37:42.085Z,2.80
2017-12-28T11:40:09.041Z,2.80
2017-12-28T11:42:36.777Z,2.90
2017-12-28T11:45:03.783Z,2.90
2017-12-28T11:47:31.608Z,2.80
2017-12-28T11:50:05.096Z,2.80
2017-12-28T11:52:32.823Z,2.80
2017-12-28T11:55:09.684Z,2.70
2017-12-28T11:57:36.655Z,2.60
2017-12-28T12:00:09.425Z,2.70
2017-12-28T12:02:40.168Z,2.70
2017-12-28T12:05:07.128Z,2.80
2017-12-28T12:07:39.827Z,2.80
2017-12-28T12:10:11.131Z,2.70
2017-12-28T12:12:38.099Z,2.70
2017-12-28T12:15:05.065Z,2.60
2017-12-28T12:17:32.028Z,2.30
2017-12-28T12:19:59.768Z,1.80
2017-12-28T12:22:26.736Z,1.90
2017-12-28T12:24:54.460Z,1.80
2017-12-28T12:27:21.435Z,1.80
2017-12-28T12:29:49.165Z,2.10
2017-12-28T12:32:16.182Z,2.10
2017-12-28T12:34:43.880Z,2.30
2017-12-28T12:37:10.848Z,2.30
2017-12-28T12:39:38.588Z,2.40
2017-12-28T12:42:05.557Z,2.30
2017-12-28T12:44:32.524Z,2.20
2017-12-28T12:47:00.250Z,2.20
2017-12-28T12:49:27.223Z,2.20
2017-12-28T12:51:54.946Z,2.20
2017-12-28T12:54:21.917Z,2.20
2017-12-28T12:56:48.871Z,2.10
2017-12-28T12:59:15.843Z,2.00
2017-12-28T13:01:42.807Z,2.00
2017-12-28T13:04:09.768Z,1.90
2017-12-28T13:06:36.745Z,1.90
2017-12-28T13:09:03.716Z,2.00
2017-12-28T13:11:31.442Z,2.00
2017-12-28T13:13:58.392Z,2.00
2017-12-28T13:16:25.368Z,2.10
2017-12-28T13:18:53.089Z,2.50
2017-12-28T13:21:20.061Z,2.50
2017-12-28T13:23:47.023Z,2.50
2017-12-28T13:26:14.760Z,2.80
2017-12-28T13:28:41.717Z,2.80
2017-12-28T13:31:08.684Z,2.80
2017-12-28T13:33:36.188Z,2.70
2017-12-28T13:36:03.160Z,2.60
2017-12-28T13:38:30.131Z,2.60
2017-12-28T13:40:57.864Z,2.50
2017-12-28T13:43:24.886Z,2.50
2017-12-28T13:45:51.844Z,2.40
2017-12-28T13:48:18.812Z,2.30
2017-12-28T13:50:46.540Z,2.20
2017-12-28T13:53:13.504Z,2.20
2017-12-28T13:55:40.464Z,2.10
2017-12-28T13:58:07.435Z,2.10
2017-12-28T14:00:35.156Z,2.00
2017-12-28T14:03:02.124Z,2.00
2017-12-28T14:05:29.864Z,2.10
2017-12-28T14:07:56.836Z,2.10
2017-12-28T14:10:24.568Z,1.90
2017-12-28T14:12:51.536Z,1.90
2017-12-28T14:15:19.064Z,1.90
2017-12-28T14:17:46.016Z,2.00
2017-12-28T14:20:12.980Z,2.00
2017-12-28T14:22:39.940Z,1.90
2017-12-28T14:25:07.680Z,1.90
2017-12-28T14:27:34.641Z,1.80
2017-12-28T14:30:01.612Z,1.70
2017-12-28T14:32:28.569Z,1.70
2017-12-28T14:34:55.532Z,1.70
2017-12-28T14:37:23.239Z,1.60
2017-12-28T14:39:50.213Z,1.50
2017-12-28T14:42:17.177Z,1.50
2017-12-28T14:44:44.148Z,1.70
2017-12-28T14:47:11.144Z,1.80
2017-12-28T14:49:38.073Z,1.60
2017-12-28T14:52:05.032Z,1.40
2017-12-28T14:54:31.994Z,1.40
2017-12-28T14:56:58.973Z,1.40
2017-12-28T15:11:19.800Z,1.10
2017-12-28T15:13:47.584Z,0.90
2017-12-28T15:16:15.280Z,0.90
2017-12-28T15:18:42.247Z,0.90
2017-12-28T15:21:09.212Z,0.90
2017-12-28T15:23:36.951Z,0.80
2017-12-28T15:26:03.913Z,0.90
2017-12-28T15:28:30.875Z,0.80
2017-12-28T15:30:58.604Z,0.80
2017-12-28T15:33:25.585Z,0.70
2017-12-28T15:35:53.295Z,0.70
2017-12-28T15:38:20.264Z,0.70
2017-12-28T15:40:47.220Z,0.70
2017-12-28T15:43:14.955Z,0.60
2017-12-28T15:45:41.922Z,0.60
2017-12-28T15:48:08.888Z,0.60
2017-12-28T15:50:36.620Z,0.40
2017-12-28T15:53:03.594Z,0.40
2017-12-28T15:55:31.320Z,0.20
2017-12-28T15:57:58.292Z,0.20
2017-12-28T16:00:25.252Z,0.10
2017-12-28T16:02:52.988Z,0.10
2017-12-28T16:05:19.952Z,0.10
2017-12-28T16:07:47.680Z,0.00
2017-12-28T16:10:14.652Z,0.00
2017-12-28T16:12:42.509Z,0.00
2017-12-28T16:15:09.469Z,0.00
2017-12-28T16:17:36.421Z,0.00
2017-12-28T16:20:04.160Z,0.00
2017-12-28T16:22:31.136Z,-0.10
2017-12-28T16:24:58.882Z,-0.10
2017-12-28T16:27:25.850Z,-0.10
2017-12-28T16:29:53.582Z,-0.20
2017-12-28T16:32:20.539Z,-0.20
2017-12-28T16:34:48.275Z,-0.20
2017-12-28T16:37:15.245Z,-0.20
2017-12-28T16:39:42.844Z,-0.20
2017-12-28T16:42:09.812Z,-0.20
2017-12-28T16:44:36.779Z,-0.20
2017-12-28T16:47:03.758Z,-0.20
2017-12-28T16:49:31.476Z,-0.20
2017-12-28T16:51:58.451Z,-0.20
2017-12-28T16:54:26.180Z,-0.20
2017-12-28T16:56:53.156Z,-0.20
2017-12-28T16:59:20.903Z,-0.20
2017-12-28T17:01:47.908Z,-0.30
2017-12-28T17:04:15.621Z,-0.20
2017-12-28T17:06:42.597Z,-0.20
2017-12-28T17:09:10.320Z,-0.10
2017-12-28T17:11:37.297Z,-0.10
2017-12-28T17:14:05.024Z,0.00
2017-12-28T17:16:31.991Z,0.00
2017-12-28T17:18:59.720Z,0.10
2017-12-28T17:21:26.688Z,0.10
2017-12-28T17:23:53.648Z,0.00
2017-12-28T17:26:20.658Z,0.00
2017-12-28T17:28:47.608Z,0.00
2017-12-28T17:31:14.573Z,-0.10
2017-12-28T17:33:41.548Z,-0.10
2017-12-28T17:36:09.059Z,0.00
2017-12-28T17:38:36.028Z,0.10
2017-12-28T17:41:03.748Z,0.00
2017-12-28T17:43:30.721Z,0.00
2017-12-28T17:45:59.091Z,-0.20
2017-12-28T17:48:26.055Z,-0.20
2017-12-28T17:50:53.021Z,-0.20
2017-12-28T17:53:20.768Z,-0.40
2017-12-28T17:55:47.732Z,-0.40
2017-12-28T17:58:15.476Z,-0.50
2017-12-28T18:00:43.114Z,-0.50
2017-12-28T18:03:10.093Z,-0.50
2017-12-28T18:05:37.073Z,-0.50
2017-12-28T18:08:04.044Z,-0.50
2017-12-28T18:10:31.013Z,-0.60
2017-12-28T18:12:57.976Z,-0.60
2017-12-28T18:15:25.716Z,-0.50
2017-12-28T18:17:52.683Z,-0.60
2017-12-28T18:20:20.421Z,-0.60
2017-12-28T18:22:47.390Z,-0.60
2017-12-28T18:25:14.360Z,-0.60
2017-12-28T18:27:41.332Z,-0.60
2017-12-28T18:30:08.306Z,-0.60
2017-12-28T18:32:36.037Z,-0.60
2017-12-28T18:35:03.012Z,-0.60
2017-12-28T18:37:29.975Z,-0.60
2017-12-28T18:39:56.944Z,-0.60
2017-12-28T18:42:24.729Z,-0.70
2017-12-28T18:44:51.692Z,-0.70
2017-12-28T18:47:18.672Z,-0.70
2017-12-28T18:49:45.639Z,-0.70
2017-12-28T18:52:13.380Z,-0.60
2017-12-28T18:54:40.352Z,-0.60
2017-12-28T18:57:08.093Z,-0.60
2017-12-28T18:59:35.055Z,-0.70
2017-12-28T19:02:02.797Z,-0.60
2017-12-28T19:04:29.764Z,-0.70
2017-12-28T19:06:57.500Z,-0.60
2017-12-28T19:09:24.464Z,-0.60
2017-12-28T19:11:52.199Z,-0.60
2017-12-28T19:14:19.172Z,-0.60
2017-12-28T19:16:46.177Z,-0.60
2017-12-28T19:19:13.129Z,-0.60
2017-12-28T19:21:40.092Z,-0.50
2017-12-28T19:24:07.069Z,-0.50
2017-12-28T19:26:34.804Z,-0.50
2017-12-28T19:29:01.788Z,-0.50
2017-12-28T19:31:28.761Z,-0.40
2017-12-28T19:33:55.724Z,-0.40
2017-12-28T19:36:22.688Z,-0.30
2017-12-28T19:38:49.659Z,-0.30
2017-12-28T19:41:17.384Z,-0.30
2017-12-28T19:43:44.355Z,-0.30
2017-12-28T19:46:12.093Z,-0.40
2017-12-28T19:48:39.061Z,-0.40
2017-12-28T19:51:06.792Z,-0.40
2017-12-28T19:53:33.768Z,-0.50
2017-12-28T19:56:00.746Z,-0.50
2017-12-28T19:58:28.484Z,-0.50
2017-12-28T20:00:56.216Z,-0.50
2017-12-28T20:03:23.185Z,-0.50
2017-12-28T20:05:50.159Z,-0.50
2017-12-28T20:08:17.888Z,-0.50
2017-12-28T20:10:44.859Z,-0.50
2017-12-28T20:13:12.592Z,-0.50
2017-12-28T20:15:39.556Z,-0.50
2017-12-28T20:18:06.524Z,-0.50
2017-12-28T20:20:34.264Z,-0.50
2017-12-28T20:23:01.228Z,-0.50
2017-12-28T20:25:28.967Z,-0.50
2017-12-28T20:27:55.928Z,-0.50
2017-12-28T20:30:23.663Z,-0.40
2017-12-28T20:32:51.397Z,-0.40
2017-12-28T20:35:18.384Z,-0.40
2017-12-28T20:37:45.336Z,-0.40
2017-12-28T20:40:13.064Z,-0.40
2017-12-28T20:42:40.044Z,-0.50
2017-12-28T20:45:07.776Z,-0.40
2017-12-28T20:47:34.753Z,-0.50
2017-12-28T20:50:01.721Z,-0.40
2017-12-28T20:52:29.451Z,-0.30
2017-12-28T20:54:56.417Z,-0.30
2017-12-28T20:57:24.152Z,-0.40
2017-12-28T20:59:51.124Z,-0.40
2017-12-28T21:02:18.864Z,-0.40
2017-12-28T21:04:45.829Z,-0.50
2017-12-28T21:07:13.560Z,-0.50
2017-12-28T21:09:40.519Z,-0.50
2017-12-28T21:12:07.496Z,-0.50
2017-12-28T21:14:35.233Z,-0.50
2017-12-28T21:17:02.213Z,-0.60
2017-12-28T21:19:29.937Z,-0.50
2017-12-28T21:21:56.904Z,-0.60
2017-12-28T21:24:24.645Z,-0.50
2017-12-28T21:26:51.607Z,-0.60
2017-12-28T21:29:19.344Z,-0.60
2017-12-28T21:31:46.318Z,-0.60
2017-12-28T21:34:13.293Z,-0.60
2017-12-28T21:36:40.256Z,-0.50
2017-12-28T21:39:07.868Z,-0.50
2017-12-28T21:41:35.599Z,-0.50
2017-12-28T21:44:02.585Z,-0.50
2017-12-28T21:46:30.312Z,-0.50
2017-12-28T21:48:57.276Z,-0.50
2017-12-28T21:51:24.252Z,-0.60
2017-12-28T21:53:51.992Z,-0.50
2017-12-28T21:56:19.756Z,-0.50
2017-12-28T21:58:47.508Z,-0.50
2017-12-28T22:01:14.489Z,-0.50
2017-12-28T22:03:42.215Z,-0.40
2017-12-28T22:06:09.188Z,-0.50
2017-12-28T22:08:36.934Z,-0.30
2017-12-28T22:11:03.904Z,-0.40
2017-12-28T22:13:31.643Z,-0.30
2017-12-28T22:15:59.385Z,-0.30
2017-12-28T22:18:26.356Z,-0.30
2017-12-28T22:20:54.832Z,-0.30
2017-12-28T22:23:21.796Z,-0.30
2017-12-28T22:25:49.531Z,-0.30
2017-12-28T22:28:16.500Z,-0.30
2017-12-28T22:30:44.252Z,-0.30
2017-12-28T22:33:11.210Z,-0.30
2017-12-28T22:35:38.964Z,-0.40
2017-12-28T22:38:05.936Z,-0.40
2017-12-28T22:40:32.916Z,-0.30
2017-12-28T22:42:59.884Z,-0.30
2017-12-28T22:45:26.847Z,-0.30
2017-12-28T22:47:53.815Z,-0.30
2017-12-28T22:50:20.775Z,-0.30
2017-12-28T22:52:47.748Z,-0.20
2017-12-28T22:55:14.720Z,-0.20
2017-12-28T22:57:41.688Z,-0.20
2017-12-28T23:00:09.415Z,-0.30
2017-12-28T23:02:36.756Z,-0.30
2017-12-28T23:05:03.779Z,-0.20
2017-12-28T23:07:30.749Z,-0.20
2017-12-28T23:09:57.756Z,-0.10
2017-12-28T23:12:25.469Z,-0.10
2017-12-28T23:14:52.427Z,-0.10
2017-12-28T23:17:19.392Z,0.00
2017-12-28T23:19:47.854Z,0.10
2017-12-28T23:22:14.829Z,0.00
2017-12-28T23:24:42.563Z,0.10
2017-12-28T23:27:09.520Z,0.10
2017-12-28T23:29:37.255Z,0.10
2017-12-28T23:32:04.216Z,0.10
2017-12-28T23:34:31.179Z,0.20
2017-12-28T23:36:58.913Z,0.20
2017-12-28T23:39:25.872Z,0.20
2017-12-28T23:41:54.356Z,0.20
2017-12-28T23:44:21.342Z,0.20
2017-12-28T23:46:49.049Z,0.30
2017-12-28T23:49:16.016Z,0.30
2017-12-28T23:51:42.968Z,0.30
2017-12-28T23:54:10.695Z,0.40
2017-12-28T23:56:37.655Z,0.40
2017-12-28T23:59:04.623Z,0.50
